Time;durP1;ratioP1;P1;durP2;ratioP2;P2;SDS_P1;SDS_P2;PMS_P1;PMS_P2;Temp;Humidity;BMP_temperature;BMP_pressure;BME280_temperature;BME280_humidity;BME280_pressure;Samples;Min_cycle;Max_cycle;Signal;HPM_P1;HPM_P2
2022/03/26 00:00:43;;;;;;;1.88;1.77;;;;;;;5.45;100.00;102374.88;5055141;28;20486;-82
2022/03/26 00:03:14;;;;;;;1.80;1.70;;;;;;;5.39;100.00;102364.06;5042509;28;20057;-82
2022/03/26 00:05:44;;;;;;;2.22;2.13;;;;;;;5.40;100.00;102363.84;5042464;28;20062;-82
2022/03/26 00:08:17;;;;;;;2.00;1.90;;;;;;;5.44;100.00;102356.16;5043428;28;20065;-81
2022/03/26 00:10:51;;;;;;;2.15;2.05;;;;;;;5.38;100.00;102344.28;5039734;28;20052;-82
2022/03/26 00:13:25;;;;;;;2.08;1.98;;;;;;;5.31;100.00;102348.03;5037619;28;20050;-82
2022/03/26 00:15:58;;;;;;;2.35;2.25;;;;;;;5.38;100.00;102340.78;5037000;28;20414;-80
2022/03/26 00:18:31;;;;;;;2.67;2.47;;;;;;;5.39;100.00;102353.25;5036515;28;20048;-82
2022/03/26 00:20:59;;;;;;;2.40;2.30;;;;;;;5.42;100.00;102352.84;5048926;28;20052;-82
2022/03/26 00:23:32;;;;;;;2.83;2.63;;;;;;;5.23;100.00;102349.03;5040522;28;20052;-82
2022/03/26 00:26:02;;;;;;;2.50;2.40;;;;;;;5.15;100.00;102350.06;5038728;28;20055;-82
2022/03/26 00:28:36;;;;;;;2.90;2.70;;;;;;;5.21;100.00;102345.72;5037988;28;20480;-82
2022/03/26 00:31:09;;;;;;;2.78;2.58;;;;;;;5.20;100.00;102334.06;5037756;28;20064;-82
2022/03/26 00:33:38;;;;;;;3.10;2.90;;;;;;;5.31;100.00;102332.66;5053161;28;20049;-82
2022/03/26 00:36:11;;;;;;;3.47;3.28;;;;;;;5.32;100.00;102342.44;5041582;28;20053;-80
2022/03/26 00:38:44;;;;;;;4.05;3.75;;;;;;;5.34;100.00;102342.22;5046567;28;20375;-83
2022/03/26 00:41:13;;;;;;;3.45;3.25;;;;;;;5.37;100.00;102333.72;5045607;28;20074;-82
2022/03/26 00:43:46;;;;;;;3.45;3.25;;;;;;;5.34;100.00;102345.75;5041092;28;20051;-82
2022/03/26 00:46:19;;;;;;;3.25;3.05;;;;;;;5.36;100.00;102349.09;5061092;28;20063;-82
2022/03/26 00:48:56;;;;;;;3.60;3.40;;;;;;;5.25;100.00;102350.50;5048859;28;20045;-81
2022/03/26 00:51:29;;;;;;;3.63;3.42;;;;;;;5.31;100.00;102356.13;5043013;28;20811;-82
2022/03/26 00:54:02;;;;;;;3.47;3.28;;;;;;;5.37;100.00;102342.66;5058719;28;20060;-83
2022/03/26 00:56:37;;;;;;;3.95;3.65;;;;;;;5.31;100.00;102343.44;5039824;28;20045;-82
2022/03/26 00:59:10;;;;;;;3.65;3.45;;;;;;;5.33;100.00;102346.81;5046277;28;20424;-81
2022/03/26 01:01:43;;;;;;;4.18;3.88;;;;;;;5.30;100.00;102346.38;5044370;28;20056;-82
2022/03/26 01:04:16;;;;;;;4.05;3.75;;;;;;;5.21;100.00;102332.22;5041809;28;20060;-80
2022/03/26 01:06:50;;;;;;;4.10;3.80;;;;;;;5.17;100.00;102341.75;5047123;28;20614;-81
2022/03/26 01:09:23;;;;;;;4.03;3.72;;;;;;;5.13;100.00;102341.31;5063594;28;20048;-81
2022/03/26 01:11:57;;;;;;;4.90;4.57;;;;;;;5.15;100.00;102314.97;5041384;28;20874;-81
2022/03/26 01:14:31;;;;;;;5.35;4.95;;;;;;;5.01;100.00;102327.56;5034599;28;20048;-81
2022/03/26 01:17:04;;;;;;;5.43;5.03;;;;;;;5.14;100.00;102326.81;5040564;28;20053;-81
2022/03/26 01:19:37;;;;;;;5.95;5.55;;;;;;;5.14;100.00;102323.25;5040304;28;20056;-81
2022/03/26 01:22:11;;;;;;;6.07;5.68;;;;;;;5.07;100.00;102315.16;5040257;28;20049;-82
2022/03/26 01:24:39;;;;;;;6.55;6.05;;;;;;;5.09;100.00;102330.09;5045837;28;20053;-80
2022/03/26 01:27:13;;;;;;;5.97;5.57;;;;;;;5.10;100.00;102331.75;5040475;28;20045;-81
2022/03/26 01:29:46;;;;;;;6.57;6.07;;;;;;;5.07;100.00;102334.06;5033757;28;20049;-81
2022/03/26 01:32:19;;;;;;;6.95;6.45;;;;;;;5.06;100.00;102324.28;5043369;28;20049;-81
2022/03/26 01:34:52;;;;;;;6.38;5.93;;;;;;;4.96;100.00;102321.97;5040510;28;20529;-80
2022/03/26 01:37:25;;;;;;;6.45;5.95;;;;;;;5.02;100.00;102314.94;5054870;28;20060;-83
2022/03/26 01:39:59;;;;;;;8.07;7.47;;;;;;;4.95;100.00;102317.59;5053780;28;20062;-80
2022/03/26 01:42:33;;;;;;;7.65;7.13;;;;;;;4.87;100.00;102313.19;5044782;28;20475;-81
2022/03/26 01:45:11;;;;;;;8.85;8.25;;;;;;;4.79;100.00;102302.56;5039021;28;20053;-81
2022/03/26 01:47:40;;;;;;;9.25;8.65;;;;;;;4.72;100.00;102318.75;5038063;28;20049;-81
2022/03/26 01:50:13;;;;;;;9.13;8.52;;;;;;;4.80;100.00;102311.53;5047085;28;20130;-81
2022/03/26 01:52:46;;;;;;;8.80;8.20;;;;;;;4.76;100.00;102306.53;5048096;28;20064;-82
2022/03/26 01:55:20;;;;;;;9.57;8.88;;;;;;;4.77;100.00;102297.38;5035759;28;20046;-80
2022/03/26 01:57:50;;;;;;;10.77;10.07;;;;;;;4.79;100.00;102299.06;5034575;28;20504;-82
2022/03/26 02:00:24;;;;;;;10.63;9.93;;;;;;;4.76;100.00;102301.16;5038308;28;20803;-81
2022/03/26 02:02:58;;;;;;;10.25;9.55;;;;;;;4.78;100.00;102303.63;5047836;28;20053;-80
2022/03/26 02:05:32;;;;;;;11.10;10.40;;;;;;;4.67;100.00;102299.63;5042445;28;20059;-81
2022/03/26 02:08:06;;;;;;;11.98;11.18;;;;;;;4.77;100.00;102310.88;5039607;28;20053;-81
2022/03/26 02:10:39;;;;;;;14.23;13.32;;;;;;;4.81;100.00;102297.84;5046475;28;20480;-81
2022/03/26 02:13:14;;;;;;;15.70;14.73;;;;;;;4.77;100.00;102297.38;5045437;28;20045;-80
2022/03/26 02:15:48;;;;;;;15.88;14.88;;;;;;;4.69;100.00;102297.56;5043202;28;20045;-81
2022/03/26 02:18:21;;;;;;;16.45;15.45;;;;;;;4.72;100.00;102297.19;5052526;28;20051;-81
2022/03/26 02:20:55;;;;;;;17.00;16.00;;;;;;;4.74;100.00;102295.09;5048736;28;20810;-82
2022/03/26 02:23:30;;;;;;;17.02;16.02;;;;;;;4.78;100.00;102306.34;5045323;28;20049;-82
2022/03/26 02:26:03;;;;;;;18.83;17.73;;;;;;;4.71;100.00;102305.44;5042650;28;20057;-80
2022/03/26 02:28:36;;;;;;;17.75;16.67;;;;;;;4.57;100.00;102285.69;5047068;28;20072;-81
2022/03/26 02:31:05;;;;;;;18.95;17.85;;;;;;;4.70;100.00;102303.81;5043138;28;20053;-80
2022/03/26 02:33:38;;;;;;;20.88;19.67;;;;;;;4.72;100.00;102299.03;5050999;28;20382;-81
2022/03/26 02:36:08;;;;;;;21.35;20.15;;;;;;;4.62;100.00;102298.59;5040436;28;20600;-82
2022/03/26 02:38:41;;;;;;;22.88;21.58;;;;;;;4.65;100.00;102292.78;5033696;28;20049;-81
2022/03/26 02:41:14;;;;;;;25.67;24.25;;;;;;;4.67;100.00;102296.09;5055032;28;20065;-81
2022/03/26 02:43:47;;;;;;;27.27;25.77;;;;;;;4.68;100.00;102293.22;5060150;28;20064;-81
2022/03/26 02:46:21;;;;;;;30.60;28.90;;;;;;;4.66;100.00;102273.69;5044392;28;20048;-81
2022/03/26 02:48:49;;;;;;;32.30;30.52;;;;;;;4.70;100.00;102269.56;5044954;28;20049;-82
2022/03/26 02:51:24;;;;;;;36.60;34.60;;;;;;;4.75;100.00;102275.19;5044031;28;20616;-81
2022/03/26 02:53:57;;;;;;;38.65;36.55;;;;;;;4.80;100.00;102269.19;5040341;28;20045;-81
2022/03/26 02:56:25;;;;;;;44.40;42.03;;;;;;;4.89;100.00;102273.38;5037399;28;20044;-81
2022/03/26 02:58:58;;;;;;;38.88;36.75;;;;;;;4.82;100.00;102266.28;5040520;28;20056;-81
2022/03/26 03:01:31;;;;;;;41.75;39.50;;;;;;;4.82;100.00;102269.84;5041047;28;20053;-81
2022/03/26 03:04:05;;;;;;;41.85;39.60;;;;;;;4.79;100.00;102274.78;5059442;28;20734;-81
2022/03/26 03:06:35;;;;;;;42.08;39.80;;;;;;;4.76;100.00;102276.88;5047221;28;20052;-81
2022/03/26 03:09:09;;;;;;;41.40;39.17;;;;;;;4.75;100.00;102277.91;5048073;28;20056;-81
2022/03/26 03:11:42;;;;;;;41.92;39.65;;;;;;;4.67;100.00;102277.22;5045772;28;20049;-82
2022/03/26 03:14:15;;;;;;;49.08;46.42;;;;;;;4.63;100.00;102268.72;5049259;28;20064;-82
2022/03/26 03:16:49;;;;;;;48.80;46.17;;;;;;;4.65;100.00;102269.34;5069349;28;20045;-82
2022/03/26 03:19:17;;;;;;;49.00;46.35;;;;;;;4.65;100.00;102266.63;5037446;28;20053;-81
2022/03/26 03:21:47;;;;;;;54.42;51.53;;;;;;;4.68;100.00;102268.09;5042491;28;20135;-81
2022/03/26 03:24:21;;;;;;;50.28;47.58;;;;;;;4.58;100.00;102266.63;5047460;28;20049;-80
2022/03/26 03:26:49;;;;;;;51.78;49.00;;;;;;;4.59;100.00;102272.84;5041774;28;20481;-79
2022/03/26 03:29:22;;;;;;;53.10;50.28;;;;;;;4.59;100.00;102275.53;5053021;28;20064;-81
2022/03/26 03:31:55;;;;;;;56.28;53.28;;;;;;;4.49;100.00;102275.06;5043389;28;20417;-82
2022/03/26 03:34:28;;;;;;;55.40;52.42;;;;;;;4.40;100.00;102271.72;5056696;28;20049;-82
2022/03/26 03:37:03;;;;;;;58.70;55.55;;;;;;;4.51;100.00;102273.84;5053731;28;20504;-82
2022/03/26 03:39:36;;;;;;;63.67;60.25;;;;;;;4.48;100.00;102265.34;5044757;28;20536;-81
2022/03/26 03:42:05;;;;;;;73.63;69.70;;;;;;;4.47;100.00;102255.56;5039364;28;20405;-81
2022/03/26 03:44:38;;;;;;;81.43;77.10;;;;;;;4.46;100.00;102267.38;5050743;28;20049;-81
2022/03/26 03:47:11;;;;;;;72.28;68.40;;;;;;;4.43;100.00;102271.31;5045861;28;20064;-82
2022/03/26 03:49:45;;;;;;;79.63;75.40;;;;;;;4.40;100.00;102267.13;5041335;28;20059;-81
2022/03/26 03:52:14;;;;;;;76.13;72.05;;;;;;;4.41;100.00;102276.91;5037941;28;20057;-81
2022/03/26 03:54:47;;;;;;;76.25;72.18;;;;;;;4.32;100.00;102261.09;5046803;28;20049;-82
2022/03/26 03:57:20;;;;;;;84.25;79.78;;;;;;;4.38;100.00;102265.69;5041857;28;20048;-81
2022/03/26 03:59:53;;;;;;;92.10;87.25;;;;;;;4.28;100.00;102251.72;5053379;28;20064;-81
2022/03/26 04:02:27;;;;;;;108.05;102.40;;;;;;;4.32;100.00;102256.50;5039568;28;20063;-81
2022/03/26 04:05:00;;;;;;;109.90;104.15;;;;;;;4.31;100.00;102268.34;5053214;28;20060;-82
2022/03/26 04:07:34;;;;;;;123.53;117.13;;;;;;;4.31;100.00;102259.41;5041253;28;20053;-81
2022/03/26 04:10:09;;;;;;;128.85;122.15;;;;;;;4.39;100.00;102262.81;5041022;28;20064;-82
2022/03/26 04:12:44;;;;;;;130.63;123.78;;;;;;;4.43;100.00;102261.38;5043633;28;20405;-82
2022/03/26 04:15:17;;;;;;;125.50;118.97;;;;;;;4.38;100.00;102258.44;5047397;28;20056;-81
2022/03/26 04:17:52;;;;;;;131.40;124.53;;;;;;;4.36;100.00;102252.38;5060028;28;20079;-81
2022/03/26 04:20:26;;;;;;;122.32;115.97;;;;;;;4.28;100.00;102249.03;5043967;28;20041;-81
2022/03/26 04:22:56;;;;;;;109.65;104.00;;;;;;;4.19;100.00;102253.78;5040557;28;20425;-82
2022/03/26 04:25:24;;;;;;;99.60;94.38;;;;;;;4.25;100.00;102255.66;5043944;28;20045;-81
2022/03/26 04:27:57;;;;;;;96.90;91.82;;;;;;;4.25;100.00;102252.97;5043669;28;20057;-81
2022/03/26 04:30:30;;;;;;;107.63;102.05;;;;;;;4.20;100.00;102248.19;5041063;28;20052;-81
2022/03/26 04:33:03;;;;;;;100.43;95.18;;;;;;;4.11;100.00;102252.06;5051331;28;20049;-82
2022/03/26 04:35:37;;;;;;;103.38;97.95;;;;;;;4.13;100.00;102239.22;5061028;28;20719;-81
2022/03/26 04:38:11;;;;;;;104.93;99.47;;;;;;;4.13;100.00;102247.31;5037446;28;20054;-81
2022/03/26 04:40:44;;;;;;;94.80;89.80;;;;;;;4.01;100.00;102246.19;5040461;28;20041;-80
2022/03/26 04:43:18;;;;;;;93.18;88.28;;;;;;;4.12;100.00;102263.69;5033452;28;20045;-81
2022/03/26 04:45:51;;;;;;;93.57;88.63;;;;;;;4.11;100.00;102264.69;5052986;28;20032;-80
2022/03/26 04:48:24;;;;;;;107.75;102.15;;;;;;;4.07;100.00;102272.34;5064673;28;20053;-81
2022/03/26 04:50:57;;;;;;;93.03;88.15;;;;;;;4.05;100.00;102275.22;5050820;28;20064;-82
2022/03/26 04:53:32;;;;;;;96.72;91.68;;;;;;;4.04;100.00;102270.88;5041901;28;20542;-81
2022/03/26 04:56:05;;;;;;;93.50;88.60;;;;;;;4.01;100.00;102259.66;5042367;28;20402;-80
2022/03/26 04:58:39;;;;;;;94.40;89.45;;;;;;;4.02;100.00;102267.56;5040219;28;20083;-81
2022/03/26 05:01:12;;;;;;;91.20;86.38;;;;;;;3.94;100.00;102270.38;5030706;28;20058;-82
2022/03/26 05:03:40;;;;;;;107.40;101.80;;;;;;;3.93;100.00;102274.09;5037999;28;20055;-81
2022/03/26 05:06:08;;;;;;;117.38;111.28;;;;;;;3.91;100.00;102266.22;5049518;28;20053;-81
2022/03/26 05:08:42;;;;;;;127.47;120.88;;;;;;;3.95;100.00;102263.97;5035089;28;20056;-81
2022/03/26 05:11:11;;;;;;;147.00;139.27;;;;;;;4.00;100.00;102266.91;5044799;28;20052;-81
2022/03/26 05:13:44;;;;;;;181.02;171.40;;;;;;;3.94;100.00;102258.78;5035192;28;20056;-80
2022/03/26 05:16:17;;;;;;;163.90;155.18;;;;;;;3.95;100.00;102260.44;5036613;28;20053;-81
2022/03/26 05:18:50;;;;;;;205.48;194.38;;;;;;;4.09;100.00;102265.72;5051427;28;20555;-82
2022/03/26 05:21:23;;;;;;;277.50;262.33;;;;;;;4.16;100.00;102265.78;5038506;28;20045;-81
2022/03/26 05:23:58;;;;;;;371.17;349.42;;;;;;;4.25;100.00;102271.81;5033703;28;20136;-82
2022/03/26 05:26:31;;;;;;;404.08;379.88;;;;;;;4.23;100.00;102274.72;5047018;28;20056;-80
2022/03/26 05:29:00;;;;;;;415.90;390.77;;;;;;;4.33;100.00;102270.84;5041487;28;20057;-82
2022/03/26 05:31:33;;;;;;;419.20;394.83;;;;;;;4.34;100.00;102269.81;5044328;28;20056;-81
2022/03/26 05:34:06;;;;;;;399.05;375.50;;;;;;;4.33;100.00;102282.44;5041948;28;20053;-81
2022/03/26 05:36:39;;;;;;;318.15;300.20;;;;;;;4.30;100.00;102284.72;5037571;28;20041;-82
2022/03/26 05:39:13;;;;;;;315.95;298.08;;;;;;;4.32;100.00;102283.47;5039384;28;20382;-82
2022/03/26 05:41:47;;;;;;;312.95;295.33;;;;;;;4.41;100.00;102276.06;5041959;28;20482;-80
2022/03/26 05:44:20;;;;;;;367.17;345.83;;;;;;;4.50;100.00;102279.44;5042173;28;20569;-81
2022/03/26 05:46:54;;;;;;;454.55;426.48;;;;;;;4.55;100.00;102274.28;5036752;28;20080;-82
2022/03/26 05:49:27;;;;;;;467.17;438.58;;;;;;;4.56;100.00;102273.25;5051236;28;20453;-80
2022/03/26 05:52:00;;;;;;;484.90;454.77;;;;;;;4.58;100.00;102273.88;5048550;28;20072;-80
2022/03/26 05:54:35;;;;;;;522.70;489.95;;;;;;;4.68;100.00;102279.75;5051966;28;20045;-82
2022/03/26 05:57:08;;;;;;;664.72;621.20;;;;;;;4.74;100.00;102272.72;5055261;28;20053;-80
2022/03/26 05:59:41;;;;;;;802.40;747.58;;;;;;;4.89;100.00;102281.47;5048052;28;20049;-81
2022/03/26 06:02:15;;;;;;;741.47;691.92;;;;;;;4.80;100.00;102258.41;5041965;28;20049;-80
2022/03/26 06:04:48;;;;;;;756.42;705.60;;;;;;;5.02;100.00;102283.38;5046611;28;20049;-81
2022/03/26 06:07:16;;;;;;;709.60;662.80;;;;;;;5.07;100.00;102274.69;5042325;28;20052;-82
2022/03/26 06:09:50;;;;;;;639.28;597.83;;;;;;;5.11;100.00;102287.56;5041462;28;20566;-80
2022/03/26 06:12:24;;;;;;;641.40;599.47;;;;;;;5.16;100.00;102286.94;5036442;28;20787;-81
2022/03/26 06:14:52;;;;;;;695.17;648.97;;;;;;;5.26;100.00;102286.53;5034617;28;20054;-81
2022/03/26 06:17:25;;;;;;;604.53;565.63;;;;;;;5.34;100.00;102286.34;5047385;28;20056;-81
2022/03/26 06:19:58;;;;;;;468.88;439.77;;;;;;;5.44;100.00;102292.19;5039634;28;20060;-81
2022/03/26 06:22:27;;;;;;;490.77;460.30;;;;;;;5.47;100.00;102293.66;5040601;28;20068;-80
2022/03/26 06:25:03;;;;;;;409.23;384.95;;;;;;;5.65;100.00;102295.75;5037872;28;20056;-80
2022/03/26 06:27:31;;;;;;;351.98;331.85;;;;;;;5.70;100.00;102304.03;5051661;28;20055;-81
2022/03/26 06:30:05;;;;;;;342.00;322.73;;;;;;;5.80;100.00;102311.75;5040770;28;20052;-80
2022/03/26 06:32:38;;;;;;;342.67;323.10;;;;;;;5.94;100.00;102305.31;5039332;28;20049;-80
2022/03/26 06:35:11;;;;;;;295.95;279.55;;;;;;;6.09;100.00;102302.41;5050575;28;20045;-80
2022/03/26 06:37:45;;;;;;;271.27;256.52;;;;;;;6.22;100.00;102316.97;5038944;28;20060;-81
2022/03/26 06:40:19;;;;;;;211.98;200.60;;;;;;;6.29;100.00;102313.19;5037002;28;20520;-81
2022/03/26 06:42:47;;;;;;;188.68;178.60;;;;;;;6.40;100.00;102321.72;5046033;28;20044;-81
2022/03/26 06:45:21;;;;;;;144.73;137.13;;;;;;;6.44;100.00;102322.94;5052741;28;20567;-80
2022/03/26 06:47:49;;;;;;;124.40;117.97;;;;;;;6.48;100.00;102324.19;5048737;28;20052;-82
2022/03/26 06:50:22;;;;;;;102.85;97.50;;;;;;;6.53;100.00;102318.97;5047059;28;20045;-80
2022/03/26 06:52:56;;;;;;;91.45;86.65;;;;;;;6.53;100.00;102320.84;5045072;28;20410;-81
2022/03/26 06:55:30;;;;;;;80.20;75.97;;;;;;;6.57;100.00;102313.97;5034822;28;20056;-81
2022/03/26 06:58:03;;;;;;;65.50;61.97;;;;;;;6.64;100.00;102315.63;5040988;28;20056;-80
2022/03/26 07:00:31;;;;;;;64.93;61.45;;;;;;;6.67;100.00;102324.34;5041202;28;20421;-80
2022/03/26 07:03:04;;;;;;;64.90;61.42;;;;;;;6.76;100.00;102323.88;5043255;28;20049;-81
2022/03/26 07:05:38;;;;;;;58.88;55.72;;;;;;;6.97;100.00;102321.94;5055164;28;20041;-82
2022/03/26 07:08:11;;;;;;;62.78;59.42;;;;;;;7.20;100.00;102320.59;5034123;28;20057;-80
2022/03/26 07:10:46;;;;;;;61.55;58.28;;;;;;;7.38;100.00;102314.44;5035588;28;20065;-81
2022/03/26 07:13:15;;;;;;;59.08;55.92;;;;;;;7.48;100.00;102318.34;5041495;28;20081;-82
2022/03/26 07:15:49;;;;;;;51.67;48.90;;;;;;;7.51;100.00;102324.34;5043143;28;20590;-82
2022/03/26 07:18:22;;;;;;;48.58;45.97;;;;;;;7.53;100.00;102311.44;5029711;28;20053;-81
2022/03/26 07:20:58;;;;;;;44.00;41.65;;;;;;;7.70;100.00;102312.53;5037147;28;20054;-82
2022/03/26 07:23:32;;;;;;;44.27;41.90;;;;;;;7.80;100.00;102303.91;5044624;28;20051;-80
2022/03/26 07:26:06;;;;;;;41.30;39.10;;;;;;;7.92;100.00;102294.00;5052162;28;20049;-81
2022/03/26 07:28:39;;;;;;;39.08;36.97;;;;;;;8.02;100.00;102288.06;5034915;28;20052;-81
2022/03/26 07:31:13;;;;;;;32.53;30.73;;;;;;;8.20;100.00;102297.28;5048114;28;20057;-80
2022/03/26 07:33:46;;;;;;;29.63;28.02;;;;;;;8.28;100.00;102288.88;5038325;28;20053;-81
2022/03/26 07:36:19;;;;;;;27.05;25.55;;;;;;;8.57;100.00;102305.50;5040171;28;20049;-82
2022/03/26 07:38:52;;;;;;;26.08;24.60;;;;;;;8.73;100.00;102296.75;5050000;28;20072;-80
2022/03/26 07:41:26;;;;;;;23.08;21.77;;;;;;;8.93;100.00;102292.94;5045080;28;20406;-81
2022/03/26 07:43:59;;;;;;;22.40;21.10;;;;;;;8.93;100.00;102287.50;5042223;28;20060;-82
2022/03/26 07:46:33;;;;;;;18.90;17.80;;;;;;;9.02;100.00;102284.25;5037872;28;20071;-82
2022/03/26 07:49:06;;;;;;;15.40;14.50;;;;;;;8.94;100.00;102300.03;5040630;28;20692;-80
2022/03/26 07:51:35;;;;;;;13.27;12.48;;;;;;;9.00;100.00;102290.97;5034786;28;20049;-80
2022/03/26 07:54:08;;;;;;;13.27;12.48;;;;;;;9.17;100.00;102285.75;5042547;28;20053;-83
2022/03/26 07:56:43;;;;;;;12.00;11.20;;;;;;;9.34;100.00;102286.72;5037565;28;20052;-85
2022/03/26 07:59:16;;;;;;;10.93;10.23;;;;;;;9.32;100.00;102297.00;5035932;28;20060;-82
2022/03/26 08:01:49;;;;;;;10.13;9.43;;;;;;;9.44;100.00;102301.63;5045888;28;20075;-84
2022/03/26 08:04:22;;;;;;;8.77;8.18;;;;;;;9.43;100.00;102300.81;5031390;28;20049;-80
2022/03/26 08:06:50;;;;;;;8.40;7.80;;;;;;;9.57;100.00;102289.72;5036888;28;20037;-80
2022/03/26 08:09:23;;;;;;;8.52;7.93;;;;;;;9.77;100.00;102298.38;5031727;28;20060;-80
2022/03/26 08:11:57;;;;;;;8.13;7.53;;;;;;;9.79;100.00;102290.00;5039370;28;20060;-81
2022/03/26 08:14:26;;;;;;;7.03;6.53;;;;;;;9.85;100.00;102292.59;5058443;28;20413;-82
2022/03/26 08:16:59;;;;;;;6.55;6.05;;;;;;;10.09;100.00;102291.78;5037438;28;20552;-81
2022/03/26 08:19:34;;;;;;;6.47;5.97;;;;;;;10.05;100.00;102305.03;5041699;28;20052;-84
2022/03/26 08:22:03;;;;;;;4.70;4.40;;;;;;;9.99;100.00;102292.38;5033717;28;20529;-83
2022/03/26 08:24:37;;;;;;;4.18;3.88;;;;;;;10.04;100.00;102296.03;5037137;28;20672;-83
2022/03/26 08:27:06;;;;;;;3.92;3.63;;;;;;;10.06;100.00;102289.56;5034854;28;20049;-80
2022/03/26 08:29:36;;;;;;;3.35;3.15;;;;;;;10.09;100.00;102291.78;5037344;28;20152;-83
2022/03/26 08:32:05;;;;;;;3.20;3.00;;;;;;;10.11;100.00;102287.78;5039601;28;20064;-82
2022/03/26 08:34:39;;;;;;;3.00;2.80;;;;;;;10.08;100.00;102266.50;5035946;28;20064;-81
2022/03/26 08:37:12;;;;;;;2.88;2.67;;;;;;;10.28;100.00;102285.16;5035621;28;20063;-80
2022/03/26 08:39:45;;;;;;;2.67;2.50;;;;;;;10.28;100.00;102285.16;5035256;28;20052;-83
2022/03/26 08:42:20;;;;;;;2.30;2.20;;;;;;;10.35;100.00;102288.59;5035676;28;20057;-84
2022/03/26 08:44:48;;;;;;;2.17;2.08;;;;;;;10.48;100.00;102290.25;5029463;28;20049;-82
2022/03/26 08:47:21;;;;;;;2.15;2.05;;;;;;;10.64;100.00;102294.09;5050592;28;20056;-83
2022/03/26 08:49:49;;;;;;;2.33;2.22;;;;;;;10.63;100.00;102295.16;5049174;28;20596;-82
2022/03/26 08:52:23;;;;;;;1.90;1.80;;;;;;;10.47;100.00;102283.16;5039810;28;20108;-83
2022/03/26 08:54:56;;;;;;;1.70;1.60;;;;;;;10.40;100.00;102276.16;5038604;28;20053;-84
2022/03/26 08:57:31;;;;;;;1.92;1.83;;;;;;;10.63;100.00;102297.88;5054134;28;20060;-84
2022/03/26 08:59:59;;;;;;;2.00;1.90;;;;;;;10.70;100.00;102304.06;5037626;28;20057;-82
2022/03/26 09:02:32;;;;;;;2.10;2.00;;;;;;;10.75;100.00;102302.50;5041767;28;20045;-82
2022/03/26 09:05:06;;;;;;;1.80;1.70;;;;;;;10.73;100.00;102305.47;5038775;28;20064;-83
2022/03/26 09:07:39;;;;;;;1.80;1.70;;;;;;;10.64;100.00;102305.00;5035545;28;20428;-83
2022/03/26 09:10:08;;;;;;;1.50;1.40;;;;;;;10.74;100.00;102300.84;5031988;28;20651;-84
2022/03/26 09:12:38;;;;;;;1.48;1.38;;;;;;;10.58;100.00;102305.13;5034077;28;20072;-84
2022/03/26 09:15:12;;;;;;;1.67;1.58;;;;;;;10.79;100.00;102318.09;5029036;28;20054;-84
2022/03/26 09:17:46;;;;;;;1.55;1.45;;;;;;;10.74;100.00;102318.00;5046871;28;20060;-85
2022/03/26 09:20:19;;;;;;;1.40;1.30;;;;;;;10.65;100.00;102319.47;5032727;28;20049;-86
2022/03/26 09:22:47;;;;;;;1.40;1.33;;;;;;;10.66;100.00;102312.91;5033541;28;20076;-83
2022/03/26 09:25:21;;;;;;;1.50;1.40;;;;;;;10.68;100.00;102311.63;5035954;28;20489;-84
2022/03/26 09:27:50;;;;;;;1.42;1.40;;;;;;;10.82;100.00;102317.63;5031033;28;20061;-84
2022/03/26 09:30:24;;;;;;;1.30;1.30;;;;;;;10.59;100.00;102304.88;5036108;28;20115;-83
2022/03/26 09:32:52;;;;;;;1.50;1.40;;;;;;;10.46;100.00;102326.94;5030829;28;20057;-85
2022/03/26 09:35:20;;;;;;;1.17;1.17;;;;;;;10.73;100.00;102332.69;5036867;28;20061;-85
2022/03/26 09:37:53;;;;;;;1.48;1.38;;;;;;;10.75;100.00;102324.28;5046301;28;20052;-82
2022/03/26 09:40:23;;;;;;;1.55;1.45;;;;;;;10.62;100.00;102323.47;5035744;28;20140;-83
2022/03/26 09:42:53;;;;;;;1.70;1.60;;;;;;;10.63;100.00;102318.84;5033844;28;20049;-86
2022/03/26 09:45:22;;;;;;;1.60;1.50;;;;;;;10.72;100.00;102320.97;5035346;28;20776;-83
2022/03/26 09:47:52;;;;;;;1.80;1.70;;;;;;;10.94;100.00;102336.66;5031106;28;20048;-82
2022/03/26 09:50:26;;;;;;;1.75;1.65;;;;;;;11.15;100.00;102320.72;5036559;28;20045;-84
2022/03/26 09:52:59;;;;;;;1.65;1.55;;;;;;;11.14;100.00;102319.06;5042998;28;20080;-83
2022/03/26 09:55:28;;;;;;;1.85;1.75;;;;;;;10.96;100.00;102318.16;5031077;28;20090;-83
2022/03/26 09:58:02;;;;;;;1.70;1.60;;;;;;;11.05;100.00;102308.53;5034513;28;20050;-83
2022/03/26 10:00:35;;;;;;;1.80;1.70;;;;;;;11.12;100.00;102305.69;5039056;28;20049;-83
2022/03/26 10:03:08;;;;;;;1.77;1.67;;;;;;;11.38;100.00;102317.06;5034352;28;20049;-81
2022/03/26 10:05:41;;;;;;;1.70;1.60;;;;;;;11.43;100.00;102322.59;5035430;28;20047;-82
2022/03/26 10:08:17;;;;;;;1.60;1.50;;;;;;;11.44;100.00;102315.25;5048924;28;20049;-83
2022/03/26 10:10:52;;;;;;;1.50;1.40;;;;;;;11.47;100.00;102320.22;5042956;28;20056;-83
2022/03/26 10:13:40;;;;;;;1.50;1.40;;;;;;;11.46;100.00;102318.53;5041459;28;20056;-84
2022/03/26 10:16:15;;;;;;;1.58;1.48;;;;;;;11.55;100.00;102309.72;5040510;28;20049;-84
2022/03/26 10:18:46;;;;;;;1.50;1.40;;;;;;;11.67;100.00;102314.25;5036357;28;20041;-84
2022/03/26 10:21:22;;;;;;;1.35;1.30;;;;;;;11.27;100.00;102313.31;5040336;28;20076;-83
2022/03/26 10:23:57;;;;;;;1.23;1.23;;;;;;;11.31;100.00;102322.66;5036234;28;20061;-83
2022/03/26 10:26:28;;;;;;;1.08;1.08;;;;;;;11.25;100.00;102330.97;5039947;28;20037;-81
2022/03/26 10:28:59;;;;;;;1.52;1.42;;;;;;;11.22;100.00;102314.03;5035944;28;20049;-83
2022/03/26 10:34:25;;;;;;;1.50;1.40;;;;;;;11.36;100.00;102333.63;5038851;28;20704;-83
2022/03/26 10:37:01;;;;;;;1.90;1.80;;;;;;;11.58;100.00;102328.31;5046888;28;20088;-81
2022/03/26 10:39:36;;;;;;;1.60;1.50;;;;;;;11.53;100.00;102327.38;5037111;28;20060;-83
2022/03/26 10:42:09;;;;;;;1.60;1.50;;;;;;;11.72;100.00;102334.28;5038297;28;20056;-84
2022/03/26 10:44:48;;;;;;;1.63;1.52;;;;;;;11.68;100.00;102329.56;5039503;28;20060;-84
2022/03/26 10:47:22;;;;;;;1.35;1.35;;;;;;;11.76;100.00;102331.06;5038261;28;20588;-84
2022/03/26 10:49:50;;;;;;;1.80;1.70;;;;;;;11.96;100.00;102315.06;5035112;28;20037;-83
2022/03/26 10:52:19;;;;;;;1.35;1.33;;;;;;;11.93;100.00;102317.41;5042352;28;20056;-85
2022/03/26 10:54:52;;;;;;;1.30;1.30;;;;;;;11.86;100.00;102320.31;5035705;28;20056;-84
2022/03/26 10:57:24;;;;;;;1.15;1.15;;;;;;;11.90;100.00;102316.84;5033706;28;20060;-82
2022/03/26 10:59:59;;;;;;;1.48;1.38;;;;;;;11.96;100.00;102320.50;5029318;28;20041;-81
2022/03/26 11:02:28;;;;;;;1.13;1.13;;;;;;;11.87;100.00;102321.97;5033797;28;20041;-83
2022/03/26 11:04:56;;;;;;;1.30;1.30;;;;;;;11.76;100.00;102320.97;5027361;28;20705;-82
2022/03/26 11:07:29;;;;;;;1.30;1.30;;;;;;;11.85;100.00;102319.50;5022428;28;20053;-82
2022/03/26 11:10:05;;;;;;;1.60;1.50;;;;;;;11.91;100.00;102320.41;5029882;28;20041;-85
2022/03/26 11:12:35;;;;;;;1.20;1.20;;;;;;;11.99;100.00;102317.28;5025525;28;20056;-82
2022/03/26 11:15:09;;;;;;;1.60;1.50;;;;;;;11.87;100.00;102313.78;5026184;28;20068;-82
2022/03/26 11:17:59;;;;;;;1.30;1.30;;;;;;;12.08;100.00;102310.34;5020882;28;20056;-83
2022/03/26 11:20:52;;;;;;;1.50;1.40;;;;;;;12.19;100.00;102313.19;5024498;28;20045;-81
2022/03/26 11:23:37;;;;;;;1.50;1.40;;;;;;;12.08;100.00;102317.69;5021873;28;20065;-80
2022/03/26 11:26:24;;;;;;;1.30;1.30;;;;;;;12.12;100.00;102318.00;5022314;28;20071;-80
2022/03/26 11:29:15;;;;;;;1.30;1.30;;;;;;;12.09;100.00;102292.06;5021363;28;20056;-79
2022/03/26 11:31:55;;;;;;;1.40;1.30;;;;;;;12.38;100.00;102316.47;5020884;28;20053;-84
2022/03/26 11:34:33;;;;;;;1.25;1.25;;;;;;;12.28;100.00;102316.31;5020444;28;20770;-83
2022/03/26 11:37:11;;;;;;;1.33;1.30;;;;;;;12.50;100.00;102295.34;5026621;28;20680;-82
2022/03/26 11:39:51;;;;;;;1.20;1.20;;;;;;;12.33;100.00;102294.56;5026064;28;20053;-82